Impacts METAR Board
IDs:

KMCO - Orlando Intl, FL, US

Updated at: 2000 UTC 08 Feb 2023
Potential Impact None Slight Moderate High
Time 08/08Z 08/09Z 08/10Z 08/11Z 08/12Z 08/13Z 08/14Z 08/15Z 08/16Z 08/17Z 08/18Z 08/19Z 08/20Z
Temp58 57 58 57 57 62 66 73 76 76 79 79 80
Dewpt54 54 55 55 54 57 58 56 54 54 54 54 54
Altim30.26 30.25 30.25 30.25 30.26 30.28 30.29 30.30 30.30 30.28 30.26 30.23 30.20
VIS10 10 10 10 10 10 10 10 10 10 10 10 10
CIG-- -- -- -- -- -- -- -- -- -- -- -- --
CoverSCTFEWFEWFEWFEWFEWFEWFEWFEWSCTSCTFEWFEW
FltCatVFRVFRVFRVFRVFRVFRVFRVFRVFRVFRVFRVFRVFR
WX--------------------------
WDir3401000008013013014012080140
WSpd4 4 0 0 0 0 4 7 9 8 9 7 10
WGst-- -- -- -- -- -- -- 15 -- -- 14 -- 16
Raw hourly METARs
KMCO 080753Z 34004KT 10SM SCT038 14/12 A3026 RMK AO2 SLPNO T01440122
KMCO 080853Z 01004KT 10SM FEW042 14/12 A3025 RMK AO2 SLP241 T01390122 58007
KMCO 080953Z 00000KT 10SM FEW040 14/13 A3025 RMK AO2 SLP241 T01440128
KMCO 081053Z 00000KT 10SM FEW043 14/13 A3025 RMK AO2 SLP242 T01390128
KMCO 081153Z 00000KT 10SM FEW040 14/12 A3026 RMK AO2 SLP246 T01390122 10161 20128 53004 $
KMCO 081253Z 00000KT 10SM FEW045 FEW250 17/14 A3028 RMK AO2 SLP251 T01670139
KMCO 081353Z 08004KT 10SM FEW045 FEW250 19/14 A3029 RMK AO2 SLP255 T01890144
KMCO 081453Z 13007G15KT 10SM FEW047 FEW250 23/13 A3030 RMK AO2 SLP259 T02280133 51013
KMCO 081553Z 13009KT 10SM FEW048 FEW250 24/12 A3030 RMK AO2 SLP259 T02440122
KMCO 081653Z 14008KT 10SM SCT049 24/12 A3028 RMK AO2 SLP253 T02440122
KMCO 081753Z 12009G14KT 10SM SCT050 26/12 A3026 RMK AO2 SLP246 T02610122 10261 20139 58013
KMCO 081853Z 08007KT 10SM FEW050 26/12 A3023 RMK AO2 SLP234 T02610122
KMCO 081953Z 14010G16KT 10SM FEW050 27/12 A3020 RMK AO2 SLP225 T02670122



Page loaded:  20:53 UTC  |   12:53 PM Pacific  |   01:53 PM Mountain  |   02:53 PM Central  |   03:53 PM Eastern

 

ADVISORIES

FORECASTS

FORECASTS

OBSERVATIONS

USER TOOLS

ABOUT US